Time;durP1;ratioP1;P1;durP2;ratioP2;P2;SDS_P1;SDS_P2;PMS_P1;PMS_P2;Temp;Humidity;BMP_temperature;BMP_pressure;BME280_temperature;BME280_humidity;BME280_pressure;Samples;Min_cycle;Max_cycle;Signal;HPM_P1;HPM_P2
2022/04/29 00:00:02;;;;;;;0.60;0.60;;;;;;;14.23;45.53;102286.66;5112935;28;20035;-81
2022/04/29 00:02:33;;;;;;;2.55;1.48;;;;;;;14.13;45.39;102283.31;5118382;28;20042;-81
2022/04/29 00:05:04;;;;;;;1.15;1.10;;;;;;;14.18;45.66;102281.47;5116664;28;20050;-81
2022/04/29 00:07:37;;;;;;;0.95;0.95;;;;;;;14.14;45.69;102285.03;5120368;28;20492;-81
2022/04/29 00:10:15;;;;;;;0.77;0.77;;;;;;;13.98;47.10;102287.06;5116562;28;20137;-81
2022/04/29 00:12:48;;;;;;;0.55;0.55;;;;;;;13.82;47.64;102294.34;5129665;28;20105;-82
2022/04/29 00:15:18;;;;;;;1.65;1.55;;;;;;;13.57;47.38;102291.22;5111223;28;20042;-80
2022/04/29 00:17:49;;;;;;;2.22;1.45;;;;;;;13.72;46.78;102295.41;5128646;28;20515;-80
2022/04/29 00:20:20;;;;;;;1.92;1.58;;;;;;;13.64;47.34;102292.88;5125398;28;20093;-81
2022/04/29 00:22:50;;;;;;;3.58;2.10;;;;;;;13.72;46.48;102285.72;5143829;28;20042;-80
2022/04/29 00:25:21;;;;;;;0.52;0.52;;;;;;;13.75;46.11;102279.53;5130763;28;20034;-80
2022/04/29 00:27:51;;;;;;;1.85;1.75;;;;;;;13.80;46.03;102282.97;5112288;28;20034;-81
2022/04/29 00:30:22;;;;;;;0.65;0.63;;;;;;;13.79;46.33;102278.59;5094894;28;20046;-80
2022/04/29 00:33:00;;;;;;;0.73;0.73;;;;;;;13.77;46.04;102262.75;5112282;28;20121;-80
2022/04/29 00:35:31;;;;;;;0.93;0.93;;;;;;;13.79;46.08;102271.53;5127146;28;20098;-80
2022/04/29 00:38:15;;;;;;;1.33;1.23;;;;;;;13.78;46.21;102264.50;5110870;28;20512;-81
2022/04/29 00:40:46;;;;;;;1.77;1.25;;;;;;;13.77;46.12;102265.41;5111035;28;20226;-80
2022/04/29 00:43:16;;;;;;;0.55;0.55;;;;;;;13.73;45.93;102263.72;5112729;28;20050;-81
2022/04/29 00:45:46;;;;;;;0.70;0.70;;;;;;;13.73;46.14;102261.09;5130469;28;20031;-81
2022/04/29 00:48:18;;;;;;;1.00;1.00;;;;;;;13.72;46.42;102254.06;5134441;28;20085;-80
2022/04/29 00:50:48;;;;;;;0.40;0.40;;;;;;;13.73;46.44;102245.25;5118444;28;20445;-81
2022/04/29 00:53:21;;;;;;;0.50;0.50;;;;;;;13.69;46.35;102251.47;5156192;28;20092;-81
2022/04/29 00:55:55;;;;;;;8.63;1.33;;;;;;;13.71;46.58;102247.03;5126474;28;20073;-81
2022/04/29 00:58:44;;;;;;;1.48;1.27;;;;;;;13.65;46.66;102240.09;5114108;28;20566;-81
2022/04/29 01:01:15;;;;;;;0.98;0.90;;;;;;;13.68;46.87;102239.16;5143637;28;20458;-81
2022/04/29 01:03:46;;;;;;;0.30;0.30;;;;;;;13.53;47.03;102254.34;5115528;28;20122;-80
2022/04/29 01:06:17;;;;;;;3.83;1.50;;;;;;;13.56;46.99;102244.66;5119629;28;20027;-80
2022/04/29 01:08:47;;;;;;;1.10;1.10;;;;;;;13.54;46.80;102242.03;5166050;28;20050;-79
2022/04/29 01:11:24;;;;;;;0.90;0.88;;;;;;;13.44;47.12;102245.72;5115977;28;20034;-80
2022/04/29 01:13:55;;;;;;;0.73;0.73;;;;;;;13.41;46.79;102233.44;5129258;28;20201;-79
2022/04/29 01:16:36;;;;;;;0.63;0.63;;;;;;;13.44;46.87;102230.75;5116073;28;20552;-80
2022/04/29 01:19:09;;;;;;;1.38;1.10;;;;;;;13.36;46.92;102232.59;5114307;28;20065;-80
2022/04/29 01:21:40;;;;;;;1.52;1.02;;;;;;;13.30;47.41;102233.56;5130315;28;20044;-80
2022/04/29 01:24:11;;;;;;;0.52;0.52;;;;;;;13.25;47.39;102226.63;5129665;28;20100;-81
2022/04/29 01:26:44;;;;;;;5.57;1.90;;;;;;;13.27;47.18;102223.06;5146330;28;20465;-81
2022/04/29 01:29:18;;;;;;;3.90;1.20;;;;;;;13.26;47.70;102225.72;5126172;28;20034;-80
2022/04/29 01:31:50;;;;;;;0.73;0.73;;;;;;;13.25;47.21;102223.97;5114918;28;20034;-80
2022/04/29 01:34:21;;;;;;;1.40;1.33;;;;;;;13.25;47.05;102221.34;5116470;28;20038;-80
2022/04/29 01:36:51;;;;;;;0.50;0.50;;;;;;;13.24;47.10;102225.72;5118356;28;20046;-80
2022/04/29 01:39:24;;;;;;;1.88;1.13;;;;;;;13.26;47.29;102223.09;5133609;28;20038;-80
2022/04/29 01:41:55;;;;;;;1.40;1.30;;;;;;;13.25;47.51;102216.06;5138522;28;20261;-81
2022/04/29 01:44:25;;;;;;;1.23;1.23;;;;;;;13.38;48.20;102220.25;5111715;28;20049;-81
2022/04/29 01:46:56;;;;;;;2.83;1.52;;;;;;;13.33;47.29;102211.56;5129829;28;20220;-81
2022/04/29 01:49:27;;;;;;;0.60;0.60;;;;;;;13.26;47.32;102220.47;5093758;28;20026;-81
2022/04/29 01:51:59;;;;;;;1.30;1.23;;;;;;;13.15;47.47;102216.22;5130269;28;20058;-81
2022/04/29 01:54:30;;;;;;;2.20;1.52;;;;;;;13.08;48.20;102211.91;5128043;28;20477;-80
2022/04/29 01:57:01;;;;;;;1.30;1.20;;;;;;;12.97;48.16;102214.69;5148266;28;20174;-81
2022/04/29 01:59:38;;;;;;;1.88;1.75;;;;;;;12.98;47.99;102212.91;5111268;28;20034;-80
2022/04/29 02:02:11;;;;;;;0.98;0.95;;;;;;;13.00;47.67;102208.50;5129223;28;20026;-80
2022/04/29 02:04:44;;;;;;;1.88;1.77;;;;;;;12.99;47.95;102209.41;5116087;28;20552;-80
2022/04/29 02:07:15;;;;;;;0.70;0.70;;;;;;;12.89;48.18;102201.63;5131380;28;20386;-80
2022/04/29 02:09:46;;;;;;;1.95;1.85;;;;;;;12.90;48.07;102200.72;5135394;28;20049;-80
2022/04/29 02:12:19;;;;;;;11.30;0.88;;;;;;;12.79;48.19;102199.97;5118256;28;20246;-80
2022/04/29 02:14:50;;;;;;;11.02;2.35;;;;;;;12.85;48.39;102199.91;5125522;28;20038;-81
2022/04/29 02:17:20;;;;;;;1.25;1.15;;;;;;;12.82;48.66;102202.59;5142067;28;20419;-80
2022/04/29 02:19:54;;;;;;;1.33;1.25;;;;;;;12.74;48.65;102199.19;5127304;28;20125;-80
2022/04/29 02:22:27;;;;;;;0.50;0.47;;;;;;;12.74;49.13;102202.66;5114353;28;20041;-80
2022/04/29 02:24:58;;;;;;;;;;;;;;;12.71;49.29;102201.84;5124729;28;20065;-80
2022/04/29 02:27:29;;;;;;;1.10;1.00;;;;;;;12.70;50.09;102200.09;5130672;28;20385;-80
2022/04/29 02:30:02;;;;;;;0.50;0.50;;;;;;;12.73;49.65;102203.56;5129374;28;20053;-80
2022/04/29 02:32:33;;;;;;;0.90;0.90;;;;;;;12.74;48.80;102197.41;5117763;28;20034;-79
2022/04/29 02:35:05;;;;;;;1.90;1.80;;;;;;;12.69;49.61;102193.97;5115064;28;20057;-80
2022/04/29 02:37:35;;;;;;;3.00;1.73;;;;;;;12.61;49.37;102198.47;5131221;28;20053;-80
2022/04/29 02:40:06;;;;;;;0.88;0.88;;;;;;;12.63;49.31;102195.78;5154365;28;20030;-81
2022/04/29 02:42:37;;;;;;;0.55;0.55;;;;;;;12.59;49.71;102194.97;5115487;28;20529;-80
2022/04/29 02:45:08;;;;;;;3.58;2.10;;;;;;;12.54;49.45;102189.75;5110756;28;20053;-81
2022/04/29 02:47:41;;;;;;;3.80;1.90;;;;;;;12.57;49.38;102192.34;5115476;28;20421;-80
2022/04/29 02:50:11;;;;;;;0.93;0.93;;;;;;;12.54;49.78;102188.91;5120942;28;20041;-80
2022/04/29 02:52:44;;;;;;;0.68;0.68;;;;;;;12.53;49.63;102193.28;5146090;28;20061;-81
2022/04/29 02:55:15;;;;;;;1.27;1.27;;;;;;;12.36;50.13;102180.31;5118435;28;20042;-81
2022/04/29 02:57:48;;;;;;;0.88;0.85;;;;;;;12.41;52.42;102182.91;5115983;28;20034;-81
2022/04/29 03:00:19;;;;;;;1.85;1.40;;;;;;;12.44;50.14;102188.09;5121877;28;20034;-81
2022/04/29 03:02:49;;;;;;;4.05;3.25;;;;;;;12.36;49.94;102187.31;5137085;28;20033;-81
2022/04/29 03:05:22;;;;;;;1.42;1.33;;;;;;;12.42;49.87;102184.66;5112304;28;20044;-80
2022/04/29 03:07:53;;;;;;;0.90;0.90;;;;;;;12.44;49.52;102182.84;5136765;28;20062;-81
2022/04/29 03:10:24;;;;;;;10.35;2.42;;;;;;;12.45;50.03;102195.13;5111208;28;20041;-80
2022/04/29 03:12:54;;;;;;;1.10;1.10;;;;;;;12.47;49.95;102187.22;5136132;28;20026;-81
2022/04/29 03:15:28;;;;;;;4.47;2.00;;;;;;;12.49;50.09;102190.69;5134952;28;20026;-81
2022/04/29 03:18:20;;;;;;;3.40;2.15;;;;;;;12.47;50.31;102193.34;5109646;28;20026;-80
2022/04/29 03:20:53;;;;;;;1.35;1.27;;;;;;;12.44;50.15;102194.25;5123565;28;20053;-81
2022/04/29 03:23:25;;;;;;;3.25;1.63;;;;;;;12.40;50.06;102189.03;5144153;28;20579;-80
2022/04/29 03:25:56;;;;;;;1.38;1.33;;;;;;;12.36;50.77;102200.47;5129140;28;20031;-81
2022/04/29 03:28:27;;;;;;;1.88;1.77;;;;;;;12.31;50.21;102197.03;5125273;28;20085;-81
2022/04/29 03:30:59;;;;;;;1.77;1.10;;;;;;;12.39;51.10;102195.19;5113764;28;20022;-81
2022/04/29 03:33:29;;;;;;;1.40;1.30;;;;;;;12.25;51.78;102197.97;5127394;28;20046;-80
2022/04/29 03:36:00;;;;;;;1.15;1.05;;;;;;;12.33;50.73;102190.00;5123369;28;20041;-80
2022/04/29 03:38:31;;;;;;;0.93;0.93;;;;;;;11.87;54.15;102181.63;5109990;28;20042;-80
2022/04/29 03:41:01;;;;;;;1.98;1.25;;;;;;;12.04;53.43;102183.28;5111394;28;20026;-80
2022/04/29 03:43:32;;;;;;;4.80;2.05;;;;;;;12.11;51.92;102184.94;5133506;28;20058;-81
2022/04/29 03:46:05;;;;;;;0.82;0.82;;;;;;;12.15;51.22;102181.41;5113156;28;20030;-80
2022/04/29 03:51:42;;;;;;;0.98;0.98;;;;;;;12.16;51.50;102182.28;5131181;28;20117;-80
2022/04/29 03:54:12;;;;;;;4.28;1.98;;;;;;;12.15;51.29;102181.41;5131414;28;20279;-80
2022/04/29 03:56:44;;;;;;;1.63;1.38;;;;;;;12.09;51.89;102182.34;5113309;28;20047;-81
2022/04/29 03:59:14;;;;;;;2.05;1.88;;;;;;;12.05;51.84;102174.50;5128566;28;20037;-80
2022/04/29 04:01:45;;;;;;;2.03;1.42;;;;;;;12.07;51.88;102170.97;5110950;28;20019;-80
2022/04/29 04:04:16;;;;;;;0.70;0.70;;;;;;;12.13;51.16;102172.66;5108009;28;20038;-80
2022/04/29 04:06:49;;;;;;;2.38;2.10;;;;;;;12.09;51.24;102178.84;5126195;28;20023;-80
2022/04/29 04:09:21;;;;;;;;;;;;;;;12.09;51.45;102181.47;5115181;28;20039;-80
2022/04/29 04:11:51;;;;;;;1.58;1.48;;;;;;;12.10;51.33;102180.59;5113591;28;19920;-81
2022/04/29 04:14:22;;;;;;;1.05;1.00;;;;;;;12.02;51.73;102187.69;5132754;28;20042;-81
2022/04/29 04:16:52;;;;;;;4.28;2.30;;;;;;;12.09;51.68;102181.47;5151161;28;20021;-81
2022/04/29 04:19:23;;;;;;;1.25;1.17;;;;;;;12.10;51.74;102188.50;5134434;28;20265;-80
2022/04/29 04:21:57;;;;;;;1.27;1.17;;;;;;;12.08;51.84;102185.84;5122778;28;20039;-81
2022/04/29 04:24:28;;;;;;;1.77;1.67;;;;;;;12.05;51.79;102191.16;5126310;28;20430;-79
2022/04/29 04:27:08;;;;;;;;;;;;;;;;;;;;;
2022/04/29 04:29:41;;;;;;;3.22;2.55;;;;;;;12.00;51.76;102189.47;5148444;28;20043;-80
2022/04/29 04:32:14;;;;;;;1.70;1.45;;;;;;;12.02;52.02;102185.06;5137311;28;20041;-80
2022/04/29 04:34:51;;;;;;;2.05;1.95;;;;;;;12.03;52.22;102192.03;5128917;28;20072;-80
2022/04/29 04:37:29;;;;;;;1.95;1.85;;;;;;;11.97;52.31;102179.84;5120082;28;20125;-80
2022/04/29 04:40:10;;;;;;;;;;;;;;;;;;;;;
2022/04/29 04:42:45;;;;;;;6.28;2.90;;;;;;;11.91;52.93;102182.47;5151560;28;20030;-80
2022/04/29 04:45:16;;;;;;;0.95;0.95;;;;;;;11.88;52.35;102183.38;5095108;28;20058;-80
2022/04/29 04:47:47;;;;;;;0.90;0.90;;;;;;;11.83;52.33;102185.19;5123539;28;20053;-80
2022/04/29 04:50:17;;;;;;;1.42;1.33;;;;;;;11.91;52.19;102190.38;5139182;28;20668;-80
2022/04/29 04:52:48;;;;;;;1.67;1.58;;;;;;;11.87;52.42;102183.41;5154311;28;20038;-80
2022/04/29 04:55:18;;;;;;;0.98;0.98;;;;;;;11.91;52.97;102182.47;5131018;28;20058;-81
2022/04/29 04:57:49;;;;;;;0.85;0.77;;;;;;;11.92;52.97;102190.38;5136450;28;20042;-81
2022/04/29 05:00:30;;;;;;;1.00;1.00;;;;;;;11.76;53.32;102183.50;5131378;28;20045;-82
2022/04/29 05:03:20;;;;;;;1.45;1.35;;;;;;;11.77;52.58;102182.63;5150180;28;20038;-81
2022/04/29 05:05:53;;;;;;;1.15;1.10;;;;;;;11.76;52.88;102189.63;5131882;28;20034;-81
2022/04/29 05:08:24;;;;;;;;;;;;;;;11.80;52.87;102187.84;5116084;28;20096;-80
2022/04/29 05:10:55;;;;;;;1.95;1.33;;;;;;;11.61;53.86;102188.00;5133591;28;20215;-80
2022/04/29 05:13:25;;;;;;;3.83;2.33;;;;;;;11.65;53.39;102196.75;5151909;28;20070;-81
2022/04/29 05:15:57;;;;;;;1.38;1.08;;;;;;;11.71;53.18;102186.19;5118891;28;20098;-81
2022/04/29 05:18:28;;;;;;;12.90;1.63;;;;;;;11.69;53.73;102173.94;5119037;28;20038;-80
2022/04/29 05:21:00;;;;;;;1.42;1.33;;;;;;;11.80;55.04;102175.59;5138419;28;20029;-80
2022/04/29 05:23:33;;;;;;;1.15;1.05;;;;;;;11.72;55.01;102177.41;5118453;28;20073;-81
2022/04/29 05:26:07;;;;;;;13.88;1.67;;;;;;;11.69;53.74;102176.56;5131503;28;20037;-81
2022/04/29 05:28:45;;;;;;;2.60;2.35;;;;;;;11.76;53.04;102168.59;5116908;28;20077;-82
2022/04/29 05:31:16;;;;;;;1.05;1.05;;;;;;;11.73;54.68;102173.00;5132165;28;20510;-81
2022/04/29 05:33:50;;;;;;;1.15;1.05;;;;;;;11.73;53.99;102173.00;5138831;28;20062;-82
2022/04/29 05:36:21;;;;;;;2.15;1.52;;;;;;;11.81;53.13;102177.34;5121727;28;20048;-81
2022/04/29 05:44:34;;;;;;;1.25;1.15;;;;;;;11.85;54.08;102183.44;5130356;28;20038;-81
2022/04/29 05:47:05;;;;;;;1.63;1.52;;;;;;;11.69;54.80;102187.09;5134104;28;20034;-81
2022/04/29 05:49:36;;;;;;;2.55;2.35;;;;;;;11.85;53.78;102188.69;5115292;28;20261;-82
2022/04/29 05:52:10;;;;;;;3.30;2.08;;;;;;;11.89;53.56;102182.50;5133236;28;20065;-81
2022/04/29 05:54:43;;;;;;;1.10;1.08;;;;;;;11.88;53.84;102186.03;5131883;28;20110;-81
2022/04/29 05:57:14;;;;;;;0.70;0.70;;;;;;;11.89;54.21;102179.88;5112869;28;20126;-81
2022/04/29 05:59:44;;;;;;;3.13;1.85;;;;;;;11.96;54.42;102180.69;5112310;28;20122;-81
2022/04/29 06:02:18;;;;;;;2.42;2.15;;;;;;;12.02;54.03;102179.81;5113492;28;20030;-81
2022/04/29 06:04:49;;;;;;;21.88;2.10;;;;;;;11.98;54.40;102183.34;5145280;28;20049;-81
2022/04/29 06:07:19;;;;;;;1.85;1.75;;;;;;;11.81;56.10;102186.97;5155953;28;20086;-81
2022/04/29 06:09:50;;;;;;;1.13;1.13;;;;;;;11.92;55.63;102190.38;5130553;28;20061;-81
2022/04/29 06:12:20;;;;;;;3.05;2.42;;;;;;;12.06;56.02;102192.91;5112046;28;20541;-81
2022/04/29 06:14:51;;;;;;;1.63;1.52;;;;;;;11.96;55.35;102191.22;5132160;28;20039;-82
2022/04/29 06:17:23;;;;;;;18.00;2.10;;;;;;;12.05;56.11;102195.53;5152318;28;20462;-81
2022/04/29 06:19:53;;;;;;;1.02;0.98;;;;;;;12.12;54.71;102199.84;5124101;28;20035;-81
2022/04/29 06:22:27;;;;;;;1.70;1.27;;;;;;;12.12;55.42;102197.22;5148308;28;20090;-81
2022/04/29 06:24:58;;;;;;;1.00;1.00;;;;;;;12.18;55.01;102199.81;5147129;28;20041;-80
2022/04/29 06:27:31;;;;;;;2.42;2.22;;;;;;;12.08;55.57;102196.38;5143027;28;20023;-80
2022/04/29 06:30:12;;;;;;;1.60;1.50;;;;;;;12.02;55.62;102195.59;5106434;28;20474;-80
2022/04/29 06:32:44;;;;;;;2.72;2.47;;;;;;;12.03;55.43;102197.31;5118017;28;20030;-80
2022/04/29 06:35:19;;;;;;;3.63;1.60;;;;;;;11.84;57.41;102191.31;5120372;28;20056;-80
2022/04/29 06:37:49;;;;;;;2.28;1.10;;;;;;;12.09;56.17;102197.28;5130539;28;20117;-81
2022/04/29 06:40:20;;;;;;;1.48;1.00;;;;;;;12.02;56.76;102206.13;5127101;28;20113;-80
2022/04/29 06:42:50;;;;;;;1.63;1.52;;;;;;;12.19;55.51;102209.44;5108215;28;20026;-80
2022/04/29 06:45:24;;;;;;;1.08;0.88;;;;;;;12.16;55.90;102214.75;5129425;28;20030;-81
2022/04/29 06:47:54;;;;;;;1.13;1.13;;;;;;;12.15;56.71;102218.25;5138274;28;20034;-81
2022/04/29 06:50:25;;;;;;;4.03;2.15;;;;;;;12.24;55.37;102220.78;5117443;28;20439;-81
2022/04/29 06:52:58;;;;;;;1.40;1.30;;;;;;;12.19;56.10;102219.94;5113013;28;20089;-79
2022/04/29 06:55:45;;;;;;;1.30;1.23;;;;;;;12.22;55.96;102230.47;5118270;28;20030;-80
2022/04/29 06:58:19;;;;;;;1.17;1.08;;;;;;;12.23;55.93;102224.31;5110381;28;20039;-79
2022/04/29 07:00:49;;;;;;;1.65;1.52;;;;;;;12.25;55.77;102214.66;5144216;28;20080;-79
2022/04/29 07:03:20;;;;;;;1.95;1.73;;;;;;;12.10;56.96;102206.91;5128388;28;20326;-79
2022/04/29 07:05:54;;;;;;;1.55;1.50;;;;;;;12.24;56.09;102201.50;5112422;28;20022;-79
2022/04/29 07:08:25;;;;;;;0.73;0.73;;;;;;;12.21;56.26;102212.91;5126636;28;20042;-79
2022/04/29 07:10:56;;;;;;;0.98;0.98;;;;;;;12.32;55.63;102218.06;5115787;28;20022;-79
2022/04/29 07:13:26;;;;;;;2.85;2.58;;;;;;;12.31;56.15;102218.09;5131245;28;20089;-81
2022/04/29 07:15:57;;;;;;;2.20;1.88;;;;;;;12.34;56.15;102210.19;5114939;28;20444;-79
2022/04/29 07:18:31;;;;;;;1.58;1.40;;;;;;;12.23;57.49;102210.28;5131214;28;20030;-80
2022/04/29 07:21:03;;;;;;;0.88;0.88;;;;;;;12.04;56.80;102204.31;5123645;28;20033;-79
2022/04/29 07:23:37;;;;;;;0.98;0.98;;;;;;;12.24;56.26;102217.28;5152363;28;20045;-79
2022/04/29 07:26:08;;;;;;;1.80;1.63;;;;;;;12.23;57.23;102223.44;5128906;28;20026;-79
2022/04/29 07:28:38;;;;;;;2.17;1.67;;;;;;;12.17;57.35;102216.50;5113649;28;20101;-79
2022/04/29 07:31:11;;;;;;;0.95;0.95;;;;;;;12.35;56.58;102220.69;5114094;28;20192;-79
2022/04/29 07:33:42;;;;;;;1.23;1.23;;;;;;;12.35;56.01;102214.56;5129896;28;20035;-79
2022/04/29 07:42:00;;;;;;;1.83;1.70;;;;;;;12.35;57.42;102211.94;5129227;28;20481;-79
2022/04/29 07:44:39;;;;;;;1.50;1.40;;;;;;;12.45;55.78;102203.00;5113722;28;20133;-79
2022/04/29 07:47:12;;;;;;;1.58;1.48;;;;;;;12.56;55.29;102201.16;5137632;28;20537;-79
2022/04/29 07:49:46;;;;;;;1.05;1.02;;;;;;;12.66;56.08;102208.94;5127673;28;20043;-79
2022/04/29 07:52:17;;;;;;;0.60;0.60;;;;;;;12.53;56.43;102209.06;5120542;28;20030;-79
2022/04/29 07:54:50;;;;;;;1.02;0.93;;;;;;;12.60;57.45;102212.50;5120296;28;20033;-79
2022/04/29 07:57:21;;;;;;;2.85;2.50;;;;;;;12.60;57.27;102212.50;5137183;28;20114;-79
2022/04/29 07:59:51;;;;;;;2.85;1.73;;;;;;;12.73;56.00;102221.13;5128169;28;20045;-79
2022/04/29 08:02:22;;;;;;;1.70;1.63;;;;;;;12.72;56.87;102215.00;5144374;28;20022;-79
2022/04/29 08:04:52;;;;;;;1.33;1.08;;;;;;;12.23;59.35;102213.78;5165080;28;20098;-79
2022/04/29 08:07:23;;;;;;;1.30;1.30;;;;;;;12.72;56.84;102209.75;5150025;28;20025;-79
2022/04/29 08:09:57;;;;;;;1.50;1.38;;;;;;;12.79;56.60;102222.84;5144214;28;20030;-79
2022/04/29 08:12:27;;;;;;;;;;;;;;;12.56;57.97;102210.81;5115802;28;20235;-79
2022/04/29 08:14:58;;;;;;;1.10;1.10;;;;;;;12.69;56.93;102220.31;5112661;28;19940;-79
2022/04/29 08:17:28;;;;;;;1.08;0.98;;;;;;;12.56;57.03;102211.69;5128022;28;20110;-79
2022/04/29 08:19:59;;;;;;;0.63;0.63;;;;;;;12.35;59.16;102214.56;5132258;28;20039;-78
2022/04/29 08:22:32;;;;;;;2.00;1.88;;;;;;;12.82;56.41;102215.75;5127115;28;20113;-79
2022/04/29 08:25:04;;;;;;;0.77;0.77;;;;;;;12.71;57.07;102217.66;5158119;28;20038;-79
2022/04/29 08:27:35;;;;;;;1.27;1.23;;;;;;;12.73;56.64;102218.50;5132291;28;20145;-79
2022/04/29 08:30:09;;;;;;;1.85;1.58;;;;;;;12.79;57.08;102217.56;5112717;28;20037;-78
2022/04/29 08:32:41;;;;;;;1.55;1.45;;;;;;;12.88;56.57;102220.94;5117869;28;20122;-79
2022/04/29 08:35:15;;;;;;;0.70;0.70;;;;;;;12.90;56.76;102223.53;5128209;28;20047;-79
2022/04/29 08:37:46;;;;;;;1.48;1.30;;;;;;;12.97;55.84;102216.44;5130303;28;20030;-79
2022/04/29 08:40:17;;;;;;;1.02;1.02;;;;;;;12.91;56.73;102225.28;5120648;28;20094;-79
2022/04/29 08:42:48;;;;;;;2.67;1.45;;;;;;;12.62;58.13;102212.47;5111312;28;20428;-79
2022/04/29 08:45:19;;;;;;;15.90;1.67;;;;;;;12.93;56.20;102217.41;5111441;28;20070;-79
2022/04/29 08:47:49;;;;;;;0.70;0.70;;;;;;;13.01;55.66;102215.53;5096869;28;20516;-79
2022/04/29 08:50:21;;;;;;;0.90;0.90;;;;;;;12.94;56.75;102211.22;5142619;28;20040;-79
2022/04/29 08:52:54;;;;;;;6.93;1.05;;;;;;;13.04;56.27;102203.19;5144284;28;20033;-79
2022/04/29 09:01:13;;;;;;;0.73;0.73;;;;;;;13.11;56.19;102213.63;5139354;28;20473;-79
2022/04/29 09:03:44;;;;;;;8.85;2.47;;;;;;;13.35;55.89;102210.63;5110209;28;20041;-79
2022/04/29 09:06:17;;;;;;;4.18;2.88;;;;;;;13.28;56.08;102210.75;5127174;28;20069;-79
2022/04/29 09:08:49;;;;;;;1.27;0.93;;;;;;;13.30;56.40;102211.59;5128645;28;20053;-79
2022/04/29 09:11:27;;;;;;;22.88;3.63;;;;;;;13.38;56.23;102209.72;5131015;28;20150;-79
2022/04/29 09:13:57;;;;;;;0.70;0.70;;;;;;;13.59;54.79;102207.69;5119379;28;20069;-80
2022/04/29 09:16:28;;;;;;;0.85;0.85;;;;;;;13.58;55.41;102208.59;5147567;28;20026;-79
2022/04/29 09:18:59;;;;;;;1.25;1.15;;;;;;;13.63;55.73;102204.09;5130236;28;20033;-79
2022/04/29 09:21:32;;;;;;;4.10;2.17;;;;;;;13.67;55.47;102200.53;5130338;28;20030;-79
2022/04/29 09:24:12;;;;;;;;;;;;;;;13.71;55.90;102203.97;5122198;28;20519;-80
2022/04/29 09:26:43;;;;;;;0.50;0.50;;;;;;;13.76;55.88;102200.34;5142970;28;19936;-80
2022/04/29 09:29:14;;;;;;;1.20;1.17;;;;;;;13.68;56.09;102208.41;5130696;28;20061;-78
2022/04/29 09:32:11;;;;;;;1.52;1.42;;;;;;;13.99;54.82;102201.75;5148523;28;20137;-77
2022/04/29 09:34:44;;;;;;;2.83;1.70;;;;;;;13.94;55.63;102198.28;5110024;28;20046;-79
2022/04/29 09:37:18;;;;;;;3.17;1.87;;;;;;;13.60;56.32;102199.75;5122674;28;20084;-78
2022/04/29 09:39:53;;;;;;;1.23;1.17;;;;;;;13.83;55.53;102198.50;5127483;28;20035;-79
2022/04/29 09:42:39;;;;;;;1.02;1.02;;;;;;;13.87;56.38;102199.31;5146621;28;20030;-78
2022/04/29 09:45:12;;;;;;;1.63;1.52;;;;;;;13.97;55.70;102208.81;5139473;28;20118;-78
2022/04/29 09:47:44;;;;;;;2.05;1.88;;;;;;;14.02;55.16;102206.94;5145116;28;20097;-78
2022/04/29 09:50:14;;;;;;;2.53;1.70;;;;;;;14.07;55.53;102205.13;5143669;28;20104;-79
2022/04/29 09:52:45;;;;;;;2.33;2.22;;;;;;;14.01;55.89;102202.56;5146743;28;20034;-79
2022/04/29 09:55:18;;;;;;;1.23;1.05;;;;;;;14.06;56.13;102206.00;5123946;28;20054;-79
2022/04/29 09:57:58;;;;;;;1.60;1.33;;;;;;;14.18;55.39;102210.19;5130787;28;20026;-79
2022/04/29 10:00:32;;;;;;;0.85;0.85;;;;;;;14.08;55.57;102211.25;5128998;28;20476;-79
2022/04/29 10:03:03;;;;;;;1.80;1.70;;;;;;;14.21;55.34;102211.91;5128826;28;20022;-79
2022/04/29 10:05:35;;;;;;;1.35;1.25;;;;;;;14.39;54.53;102203.63;5114169;28;20379;-79
2022/04/29 10:08:07;;;;;;;1.38;1.27;;;;;;;14.29;54.98;102200.31;5112219;28;20065;-79
2022/04/29 10:10:41;;;;;;;1.63;1.52;;;;;;;14.45;54.46;102206.16;5133672;28;20026;-81
2022/04/29 10:13:18;;;;;;;4.63;2.60;;;;;;;14.53;53.98;102198.09;5107012;28;20040;-80
2022/04/29 10:15:50;;;;;;;0.90;0.90;;;;;;;14.35;54.58;102194.03;5142071;28;20022;-80
2022/04/29 10:21:17;;;;;;;0.70;0.70;;;;;;;14.70;53.59;102195.13;5156476;28;20026;-79
2022/04/29 10:23:51;;;;;;;1.80;1.58;;;;;;;14.68;54.02;102198.69;5142845;28;20046;-79
2022/04/29 10:26:22;;;;;;;1.52;1.25;;;;;;;14.71;53.36;102188.94;5118780;28;20138;-79
2022/04/29 10:28:53;;;;;;;2.17;1.60;;;;;;;14.73;53.73;102192.44;5114508;28;20045;-79
2022/04/29 10:31:27;;;;;;;1.02;1.02;;;;;;;14.92;53.46;102186.72;5145868;28;20089;-79
2022/04/29 10:34:30;;;;;;;4.30;2.22;;;;;;;14.85;53.50;102193.03;5131694;28;20034;-79
2022/04/29 10:37:09;;;;;;;2.47;1.52;;;;;;;14.89;54.14;102190.31;5129183;28;20386;-79
2022/04/29 10:40:10;;;;;;;3.58;1.85;;;;;;;14.97;53.75;102186.63;5127311;28;20460;-79
2022/04/29 10:43:18;;;;;;;2.17;1.40;;;;;;;15.01;53.21;102205.03;5131165;28;20026;-79
2022/04/29 10:46:08;;;;;;;1.63;1.52;;;;;;;15.04;53.17;102188.25;5129379;28;20034;-79
2022/04/29 10:48:40;;;;;;;7.63;1.33;;;;;;;15.17;53.16;102188.81;5128077;28;20110;-79
2022/04/29 10:51:11;;;;;;;3.88;2.10;;;;;;;15.22;52.59;102179.88;5111378;28;20023;-79
2022/04/29 10:53:44;;;;;;;1.38;1.27;;;;;;;15.19;52.24;102187.00;5127856;28;20058;-79
2022/04/29 10:56:30;;;;;;;;;;;;;;;15.31;52.14;102181.44;5130224;28;20176;-79
2022/04/29 10:59:04;;;;;;;2.55;1.70;;;;;;;15.43;52.36;102175.00;5120648;28;19932;-79
2022/04/29 11:01:36;;;;;;;5.30;1.70;;;;;;;15.40;52.55;102175.94;5121041;28;20042;-79
2022/04/29 11:04:16;;;;;;;2.25;2.05;;;;;;;15.36;52.26;102171.63;5150598;28;20053;-79
2022/04/29 11:06:47;;;;;;;1.95;1.83;;;;;;;15.55;51.61;102179.97;5110071;28;20030;-79
2022/04/29 11:09:28;;;;;;;1.45;1.35;;;;;;;15.54;51.81;102172.94;5101262;28;20058;-80
2022/04/29 11:11:59;;;;;;;0.90;0.90;;;;;;;15.62;52.42;102158.69;5129680;28;20018;-80
2022/04/29 11:14:29;;;;;;;2.72;2.03;;;;;;;15.75;51.22;102154.81;5128641;28;20180;-79
2022/04/29 11:17:14;;;;;;;2.40;1.42;;;;;;;15.66;51.13;102145.31;5123258;28;20527;-80
2022/04/29 11:19:45;;;;;;;2.40;2.20;;;;;;;15.66;52.00;102144.44;5110917;28;20035;-79
2022/04/29 11:25:12;;;;;;;1.33;1.23;;;;;;;15.81;51.60;102145.84;5139207;28;20058;-79
2022/04/29 11:27:42;;;;;;;1.45;1.30;;;;;;;15.67;51.61;102146.19;5159334;28;20453;-79
2022/04/29 11:30:14;;;;;;;2.45;2.25;;;;;;;15.85;51.52;102144.88;5110549;28;20046;-80
2022/04/29 11:32:44;;;;;;;1.55;1.45;;;;;;;15.77;51.19;102137.13;5129450;28;20061;-81
2022/04/29 11:35:15;;;;;;;0.82;0.82;;;;;;;15.89;50.93;102135.94;5161684;28;20073;-80
2022/04/29 11:37:47;;;;;;;1.52;1.42;;;;;;;16.02;50.54;102132.03;5112793;28;20038;-79
2022/04/29 11:40:19;;;;;;;3.88;2.20;;;;;;;16.12;50.61;102137.94;5140029;28;20062;-78
2022/04/29 11:42:50;;;;;;;2.10;1.52;;;;;;;16.02;51.39;102136.50;5112929;28;20034;-80
2022/04/29 11:45:22;;;;;;;1.67;1.58;;;;;;;16.01;50.73;102138.25;5124087;28;20881;-79
2022/04/29 11:48:03;;;;;;;0.80;0.80;;;;;;;16.04;51.03;102135.53;5108649;28;20094;-80
2022/04/29 11:50:34;;;;;;;1.20;1.08;;;;;;;16.16;50.37;102138.72;5125919;28;20181;-79
2022/04/29 11:53:10;;;;;;;1.30;0.88;;;;;;;16.22;49.78;102133.28;5111202;28;20022;-79
2022/04/29 11:55:40;;;;;;;1.23;1.23;;;;;;;16.45;50.33;102131.75;5111331;28;20030;-79
2022/04/29 11:58:11;;;;;;;1.58;1.48;;;;;;;16.35;50.48;102132.00;5111301;28;20353;-80
2022/04/29 12:00:48;;;;;;;2.58;2.38;;;;;;;16.17;49.96;102135.16;5138690;28;20037;-79
2022/04/29 12:03:20;;;;;;;2.05;1.85;;;;;;;16.38;49.77;102127.53;5127205;28;20041;-79
2022/04/29 12:05:51;;;;;;;2.15;1.15;;;;;;;16.47;49.62;102122.84;5109255;28;20062;-80
2022/04/29 12:08:21;;;;;;;0.88;0.77;;;;;;;16.52;50.09;102120.03;5107879;28;20158;-79
2022/04/29 12:10:52;;;;;;;3.72;2.33;;;;;;;16.46;49.48;102114.94;5129241;28;20038;-80
2022/04/29 12:13:23;;;;;;;2.10;1.75;;;;;;;16.60;49.64;102111.88;5112738;28;20042;-79
2022/04/29 12:15:56;;;;;;;1.00;0.95;;;;;;;16.52;49.48;102117.41;5128413;28;20034;-79
2022/04/29 12:18:42;;;;;;;3.45;3.05;;;;;;;16.53;49.65;102116.50;5132991;28;20040;-80
2022/04/29 12:21:21;;;;;;;1.73;1.60;;;;;;;16.30;49.36;102114.50;5128026;28;20049;-80